sensor_id;sensor_type;location;lat;lon;timestamp;temperature;humidity
3360;DHT22;1693;49.602;11.046;2023-06-26T05:08:53;17.80;99.90
3360;DHT22;1693;49.602;11.046;2023-06-26T05:11:21;17.60;99.90
3360;DHT22;1693;49.602;11.046;2023-06-26T05:13:48;17.70;99.90
3360;DHT22;1693;49.602;11.046;2023-06-26T05:16:15;17.90;99.90
3360;DHT22;1693;49.602;11.046;2023-06-26T05:18:42;18.00;99.90
3360;DHT22;1693;49.602;11.046;2023-06-26T05:21:09;18.20;99.90
3360;DHT22;1693;49.602;11.046;2023-06-26T05:23:38;18.40;99.90
3360;DHT22;1693;49.602;11.046;2023-06-26T05:26:09;18.70;99.90
3360;DHT22;1693;49.602;11.046;2023-06-26T05:28:37;18.90;99.90
3360;DHT22;1693;49.602;11.046;2023-06-26T05:31:04;19.10;99.90
3360;DHT22;1693;49.602;11.046;2023-06-26T05:33:35;19.40;99.90
3360;DHT22;1693;49.602;11.046;2023-06-26T05:36:04;19.50;99.90
3360;DHT22;1693;49.602;11.046;2023-06-26T05:38:33;19.70;99.90
3360;DHT22;1693;49.602;11.046;2023-06-26T05:41:01;20.00;99.90
3360;DHT22;1693;49.602;11.046;2023-06-26T05:43:30;20.20;99.90
3360;DHT22;1693;49.602;11.046;2023-06-26T05:45:57;20.40;99.90
3360;DHT22;1693;49.602;11.046;2023-06-26T05:48:24;20.60;99.90
3360;DHT22;1693;49.602;11.046;2023-06-26T05:50:52;20.80;99.90
3360;DHT22;1693;49.602;11.046;2023-06-26T05:53:21;20.90;99.90
3360;DHT22;1693;49.602;11.046;2023-06-26T05:55:52;21.00;99.90
3360;DHT22;1693;49.602;11.046;2023-06-26T05:58:20;21.20;99.90
3360;DHT22;1693;49.602;11.046;2023-06-26T06:00:50;21.40;99.90
3360;DHT22;1693;49.602;11.046;2023-06-26T06:03:17;21.60;99.90
3360;DHT22;1693;49.602;11.046;2023-06-26T06:05:44;21.70;99.90
3360;DHT22;1693;49.602;11.046;2023-06-26T06:08:11;21.90;99.90
3360;DHT22;1693;49.602;11.046;2023-06-26T06:10:38;22.10;99.90
3360;DHT22;1693;49.602;11.046;2023-06-26T06:13:05;22.30;99.90
3360;DHT22;1693;49.602;11.046;2023-06-26T06:15:32;22.50;99.90
3360;DHT22;1693;49.602;11.046;2023-06-26T06:18:01;22.70;99.90
3360;DHT22;1693;49.602;11.046;2023-06-26T06:20:28;22.80;99.90
3360;DHT22;1693;49.602;11.046;2023-06-26T06:22:54;23.00;99.90
3360;DHT22;1693;49.602;11.046;2023-06-26T06:25:21;23.10;99.90
3360;DHT22;1693;49.602;11.046;2023-06-26T06:27:48;23.10;99.90
3360;DHT22;1693;49.602;11.046;2023-06-26T06:30:15;23.10;99.90
3360;DHT22;1693;49.602;11.046;2023-06-26T06:32:44;23.20;99.90
3360;DHT22;1693;49.602;11.046;2023-06-26T06:35:17;23.40;99.90
3360;DHT22;1693;49.602;11.046;2023-06-26T06:37:44;23.50;99.90
3360;DHT22;1693;49.602;11.046;2023-06-26T06:40:12;23.60;99.90
3360;DHT22;1693;49.602;11.046;2023-06-26T06:42:39;23.70;99.90
3360;DHT22;1693;49.602;11.046;2023-06-26T06:45:06;23.90;99.90
3360;DHT22;1693;49.602;11.046;2023-06-26T06:47:33;24.00;99.90
3360;DHT22;1693;49.602;11.046;2023-06-26T06:50:01;23.90;99.90
3360;DHT22;1693;49.602;11.046;2023-06-26T06:52:35;24.00;99.90
3360;DHT22;1693;49.602;11.046;2023-06-26T06:55:03;24.00;99.90
3360;DHT22;1693;49.602;11.046;2023-06-26T06:57:32;24.20;99.90
3360;DHT22;1693;49.602;11.046;2023-06-26T07:00:03;24.30;99.90
3360;DHT22;1693;49.602;11.046;2023-06-26T07:02:31;24.30;99.90
3360;DHT22;1693;49.602;11.046;2023-06-26T07:04:58;24.50;99.90
3360;DHT22;1693;49.602;11.046;2023-06-26T07:07:29;24.60;99.90
3360;DHT22;1693;49.602;11.046;2023-06-26T07:09:59;24.70;99.90
3360;DHT22;1693;49.602;11.046;2023-06-26T07:12:26;24.70;99.90
3360;DHT22;1693;49.602;11.046;2023-06-26T07:14:53;24.90;99.40
3360;DHT22;1693;49.602;11.046;2023-06-26T07:17:20;25.00;99.90
3360;DHT22;1693;49.602;11.046;2023-06-26T07:25:08;25.20;97.90
3360;DHT22;1693;49.602;11.046;2023-06-26T07:27:38;25.30;98.20
3360;DHT22;1693;49.602;11.046;2023-06-26T07:30:06;25.40;98.20
3360;DHT22;1693;49.602;11.046;2023-06-26T07:32:34;25.50;96.80
3360;DHT22;1693;49.602;11.046;2023-06-26T07:35:01;25.50;96.70
3360;DHT22;1693;49.602;11.046;2023-06-26T07:37:28;25.50;97.10
3360;DHT22;1693;49.602;11.046;2023-06-26T07:39:55;25.60;96.80
3360;DHT22;1693;49.602;11.046;2023-06-26T07:42:23;25.70;96.60
3360;DHT22;1693;49.602;11.046;2023-06-26T07:44:50;25.70;96.20
3360;DHT22;1693;49.602;11.046;2023-06-26T07:47:18;25.70;96.90
3360;DHT22;1693;49.602;11.046;2023-06-26T07:49:45;25.80;95.90
3360;DHT22;1693;49.602;11.046;2023-06-26T07:52:12;26.00;95.20
3360;DHT22;1693;49.602;11.046;2023-06-26T07:54:40;26.10;94.80
3360;DHT22;1693;49.602;11.046;2023-06-26T07:57:07;26.10;94.30
3360;DHT22;1693;49.602;11.046;2023-06-26T07:59:38;26.20;94.80
3360;DHT22;1693;49.602;11.046;2023-06-26T08:02:05;26.30;93.90
3360;DHT22;1693;49.602;11.046;2023-06-26T08:04:32;26.40;94.80
3360;DHT22;1693;49.602;11.046;2023-06-26T08:07:00;26.70;93.70
3360;DHT22;1693;49.602;11.046;2023-06-26T08:09:28;26.90;92.90
3360;DHT22;1693;49.602;11.046;2023-06-26T08:11:56;27.20;91.40
3360;DHT22;1693;49.602;11.046;2023-06-26T08:14:23;27.30;90.60
3360;DHT22;1693;49.602;11.046;2023-06-26T08:16:52;27.40;90.10
3360;DHT22;1693;49.602;11.046;2023-06-26T08:19:20;27.40;88.60
3360;DHT22;1693;49.602;11.046;2023-06-26T08:21:47;27.30;88.10
3360;DHT22;1693;49.602;11.046;2023-06-26T08:24:14;27.20;87.40
3360;DHT22;1693;49.602;11.046;2023-06-26T08:26:44;27.30;88.40
3360;DHT22;1693;49.602;11.046;2023-06-26T08:29:11;27.50;87.90
3360;DHT22;1693;49.602;11.046;2023-06-26T08:31:38;27.60;88.00
3360;DHT22;1693;49.602;11.046;2023-06-26T08:34:07;27.80;86.50
3360;DHT22;1693;49.602;11.046;2023-06-26T08:36:34;28.00;85.60
3360;DHT22;1693;49.602;11.046;2023-06-26T08:39:02;28.00;84.30
3360;DHT22;1693;49.602;11.046;2023-06-26T08:41:30;28.00;85.10
3360;DHT22;1693;49.602;11.046;2023-06-26T08:43:57;28.30;86.40
3360;DHT22;1693;49.602;11.046;2023-06-26T08:46:25;28.50;83.20
3360;DHT22;1693;49.602;11.046;2023-06-26T08:48:56;28.70;83.00
3360;DHT22;1693;49.602;11.046;2023-06-26T08:51:30;28.90;82.80
3360;DHT22;1693;49.602;11.046;2023-06-26T08:54:01;29.10;82.20
3360;DHT22;1693;49.602;11.046;2023-06-26T08:56:36;29.30;81.30
3360;DHT22;1693;49.602;11.046;2023-06-26T08:59:07;29.30;78.60
3360;DHT22;1693;49.602;11.046;2023-06-26T09:01:37;29.40;79.50
3360;DHT22;1693;49.602;11.046;2023-06-26T09:04:05;29.40;77.10
3360;DHT22;1693;49.602;11.046;2023-06-26T09:06:35;29.50;77.30
3360;DHT22;1693;49.602;11.046;2023-06-26T09:09:02;29.60;77.10
3360;DHT22;1693;49.602;11.046;2023-06-26T09:11:30;29.60;76.10
3360;DHT22;1693;49.602;11.046;2023-06-26T09:13:58;29.60;73.30
3360;DHT22;1693;49.602;11.046;2023-06-26T09:16:26;29.60;73.70
3360;DHT22;1693;49.602;11.046;2023-06-26T09:18:56;29.40;72.50
3360;DHT22;1693;49.602;11.046;2023-06-26T09:21:23;29.40;73.40
3360;DHT22;1693;49.602;11.046;2023-06-26T09:23:52;29.50;74.20
3360;DHT22;1693;49.602;11.046;2023-06-26T09:26:21;29.70;73.60
3360;DHT22;1693;49.602;11.046;2023-06-26T09:28:49;29.80;73.40
3360;DHT22;1693;49.602;11.046;2023-06-26T09:31:17;29.80;72.00
3360;DHT22;1693;49.602;11.046;2023-06-26T09:33:46;29.80;70.80
3360;DHT22;1693;49.602;11.046;2023-06-26T09:36:19;29.90;69.70
3360;DHT22;1693;49.602;11.046;2023-06-26T09:38:47;29.90;68.10
3360;DHT22;1693;49.602;11.046;2023-06-26T09:41:17;29.70;67.50
3360;DHT22;1693;49.602;11.046;2023-06-26T09:43:47;29.40;68.30
3360;DHT22;1693;49.602;11.046;2023-06-26T09:46:23;29.50;69.00
3360;DHT22;1693;49.602;11.046;2023-06-26T09:48:58;29.70;70.30
3360;DHT22;1693;49.602;11.046;2023-06-26T09:51:25;29.90;68.40
3360;DHT22;1693;49.602;11.046;2023-06-26T09:53:52;30.00;67.30
3360;DHT22;1693;49.602;11.046;2023-06-26T09:56:28;30.10;66.00
3360;DHT22;1693;49.602;11.046;2023-06-26T09:58:56;30.10;66.00
3360;DHT22;1693;49.602;11.046;2023-06-26T10:01:25;30.00;66.00
3360;DHT22;1693;49.602;11.046;2023-06-26T10:03:53;30.10;66.30
3360;DHT22;1693;49.602;11.046;2023-06-26T10:06:24;30.20;65.80
3360;DHT22;1693;49.602;11.046;2023-06-26T10:08:52;30.20;64.10
3360;DHT22;1693;49.602;11.046;2023-06-26T10:11:22;30.30;65.60
3360;DHT22;1693;49.602;11.046;2023-06-26T10:13:51;30.60;64.50
3360;DHT22;1693;49.602;11.046;2023-06-26T10:16:28;30.90;63.50
3360;DHT22;1693;49.602;11.046;2023-06-26T10:19:02;31.10;62.60
3360;DHT22;1693;49.602;11.046;2023-06-26T10:21:29;31.10;61.50
3360;DHT22;1693;49.602;11.046;2023-06-26T10:23:58;31.10;61.80
3360;DHT22;1693;49.602;11.046;2023-06-26T10:26:27;31.40;62.00
3360;DHT22;1693;49.602;11.046;2023-06-26T10:28:56;31.60;60.90
3360;DHT22;1693;49.602;11.046;2023-06-26T10:31:26;31.40;58.40
3360;DHT22;1693;49.602;11.046;2023-06-26T10:33:54;31.30;58.30
3360;DHT22;1693;49.602;11.046;2023-06-26T10:36:31;31.20;59.80
3360;DHT22;1693;49.602;11.046;2023-06-26T10:39:03;31.10;57.90
3360;DHT22;1693;49.602;11.046;2023-06-26T10:41:37;31.30;58.40
3360;DHT22;1693;49.602;11.046;2023-06-26T10:44:09;31.30;56.80
3360;DHT22;1693;49.602;11.046;2023-06-26T10:46:49;31.40;55.90
3360;DHT22;1693;49.602;11.046;2023-06-26T10:49:18;31.60;56.10
3360;DHT22;1693;49.602;11.046;2023-06-26T10:51:46;31.60;55.40
3360;DHT22;1693;49.602;11.046;2023-06-26T10:54:16;31.90;56.00
3360;DHT22;1693;49.602;11.046;2023-06-26T10:56:47;32.00;55.10
3360;DHT22;1693;49.602;11.046;2023-06-26T10:59:15;31.80;55.20
3360;DHT22;1693;49.602;11.046;2023-06-26T11:01:43;31.80;54.40
3360;DHT22;1693;49.602;11.046;2023-06-26T11:04:12;31.50;53.40
3360;DHT22;1693;49.602;11.046;2023-06-26T11:06:40;31.40;53.50
3360;DHT22;1693;49.602;11.046;2023-06-26T11:09:13;31.40;53.80
3360;DHT22;1693;49.602;11.046;2023-06-26T11:11:58;31.60;54.80
3360;DHT22;1693;49.602;11.046;2023-06-26T11:14:30;31.70;53.80
3360;DHT22;1693;49.602;11.046;2023-06-26T11:16:58;31.60;54.30
3360;DHT22;1693;49.602;11.046;2023-06-26T11:19:26;31.80;53.00
3360;DHT22;1693;49.602;11.046;2023-06-26T11:21:59;31.70;51.90
3360;DHT22;1693;49.602;11.046;2023-06-26T11:24:27;31.90;51.90
3360;DHT22;1693;49.602;11.046;2023-06-26T11:27:01;32.00;51.90
3360;DHT22;1693;49.602;11.046;2023-06-26T11:29:30;32.00;52.30
3360;DHT22;1693;49.602;11.046;2023-06-26T11:32:02;32.20;52.60
3360;DHT22;1693;49.602;11.046;2023-06-26T11:34:31;32.30;53.00
3360;DHT22;1693;49.602;11.046;2023-06-26T11:36:58;32.60;52.30
3360;DHT22;1693;49.602;11.046;2023-06-26T12:06:52;35.20;47.40
3360;DHT22;1693;49.602;11.046;2023-06-26T12:09:23;35.40;46.60
3360;DHT22;1693;49.602;11.046;2023-06-26T12:11:54;35.70;47.40
3360;DHT22;1693;49.602;11.046;2023-06-26T12:14:22;36.30;47.30
3360;DHT22;1693;49.602;11.046;2023-06-26T12:16:51;36.50;45.20
3360;DHT22;1693;49.602;11.046;2023-06-26T12:19:24;37.30;45.10
3360;DHT22;1693;49.602;11.046;2023-06-26T12:21:52;37.30;44.00
3360;DHT22;1693;49.602;11.046;2023-06-26T12:24:22;36.80;44.00
3360;DHT22;1693;49.602;11.046;2023-06-26T12:26:51;37.30;43.30
3360;DHT22;1693;49.602;11.046;2023-06-26T12:29:20;36.90;43.20
3360;DHT22;1693;49.602;11.046;2023-06-26T12:31:50;37.40;44.00
3360;DHT22;1693;49.602;11.046;2023-06-26T12:34:21;37.90;43.10
3360;DHT22;1693;49.602;11.046;2023-06-26T12:36:49;38.40;42.70
3360;DHT22;1693;49.602;11.046;2023-06-26T12:39:17;38.40;42.50
3360;DHT22;1693;49.602;11.046;2023-06-26T12:41:46;38.90;42.80
3360;DHT22;1693;49.602;11.046;2023-06-26T12:44:20;39.50;41.90
3360;DHT22;1693;49.602;11.046;2023-06-26T12:46:48;40.10;41.40
3360;DHT22;1693;49.602;11.046;2023-06-26T12:49:16;40.60;40.70
3360;DHT22;1693;49.602;11.046;2023-06-26T12:51:45;41.20;40.00
3360;DHT22;1693;49.602;11.046;2023-06-26T12:54:12;41.20;40.20
3360;DHT22;1693;49.602;11.046;2023-06-26T12:56:39;41.90;38.90
3360;DHT22;1693;49.602;11.046;2023-06-26T12:59:06;42.10;39.60
3360;DHT22;1693;49.602;11.046;2023-06-26T13:01:33;42.70;38.80
3360;DHT22;1693;49.602;11.046;2023-06-26T13:04:00;41.00;38.30
3360;DHT22;1693;49.602;11.046;2023-06-26T13:06:26;39.60;39.60
3360;DHT22;1693;49.602;11.046;2023-06-26T13:08:55;39.60;40.40
3360;DHT22;1693;49.602;11.046;2023-06-26T13:11:22;40.10;39.30
3360;DHT22;1693;49.602;11.046;2023-06-26T13:13:49;39.70;40.10
3360;DHT22;1693;49.602;11.046;2023-06-26T13:16:16;40.50;40.50
3360;DHT22;1693;49.602;11.046;2023-06-26T13:18:44;39.80;39.90
3360;DHT22;1693;49.602;11.046;2023-06-26T13:21:11;40.70;39.40
3360;DHT22;1693;49.602;11.046;2023-06-26T13:23:39;39.90;39.20
3360;DHT22;1693;49.602;11.046;2023-06-26T13:26:10;38.80;39.90
3360;DHT22;1693;49.602;11.046;2023-06-26T13:28:37;39.20;40.60
3360;DHT22;1693;49.602;11.046;2023-06-26T13:31:04;39.00;40.40
3360;DHT22;1693;49.602;11.046;2023-06-26T13:33:31;38.80;41.10
3360;DHT22;1693;49.602;11.046;2023-06-26T13:35:59;37.60;42.00
3360;DHT22;1693;49.602;11.046;2023-06-26T13:38:32;36.80;42.80
3360;DHT22;1693;49.602;11.046;2023-06-26T13:41:00;36.10;44.30
3360;DHT22;1693;49.602;11.046;2023-06-26T13:43:29;36.90;44.70
3360;DHT22;1693;49.602;11.046;2023-06-26T13:45:56;37.10;44.50
3360;DHT22;1693;49.602;11.046;2023-06-26T13:48:25;36.50;45.10
3360;DHT22;1693;49.602;11.046;2023-06-26T13:50:52;36.20;45.50
3360;DHT22;1693;49.602;11.046;2023-06-26T13:53:20;35.90;46.60
3360;DHT22;1693;49.602;11.046;2023-06-26T13:55:47;35.60;46.40
3360;DHT22;1693;49.602;11.046;2023-06-26T13:58:16;35.80;47.00
3360;DHT22;1693;49.602;11.046;2023-06-26T14:00:46;36.70;47.20
3360;DHT22;1693;49.602;11.046;2023-06-26T14:03:13;37.50;46.00
3360;DHT22;1693;49.602;11.046;2023-06-26T14:05:40;37.50;45.20
3360;DHT22;1693;49.602;11.046;2023-06-26T14:08:08;36.40;46.20
3360;DHT22;1693;49.602;11.046;2023-06-26T14:10:37;35.30;46.90
3360;DHT22;1693;49.602;11.046;2023-06-26T14:13:04;34.60;48.00
3360;DHT22;1693;49.602;11.046;2023-06-26T14:15:33;34.10;49.20
3360;DHT22;1693;49.602;11.046;2023-06-26T14:18:02;34.00;49.50
3360;DHT22;1693;49.602;11.046;2023-06-26T14:20:29;34.60;50.00
3360;DHT22;1693;49.602;11.046;2023-06-26T14:22:58;34.90;48.90
3360;DHT22;1693;49.602;11.046;2023-06-26T14:25:26;34.90;48.90
3360;DHT22;1693;49.602;11.046;2023-06-26T14:27:54;34.30;48.30
3360;DHT22;1693;49.602;11.046;2023-06-26T14:30:22;33.80;49.20
3360;DHT22;1693;49.602;11.046;2023-06-26T14:32:49;34.30;49.60
3360;DHT22;1693;49.602;11.046;2023-06-26T14:35:18;35.20;49.40
3360;DHT22;1693;49.602;11.046;2023-06-26T14:37:45;36.90;48.90
3360;DHT22;1693;49.602;11.046;2023-06-26T14:40:13;37.60;46.90
3360;DHT22;1693;49.602;11.046;2023-06-26T14:42:40;36.80;46.60
3360;DHT22;1693;49.602;11.046;2023-06-26T14:45:10;35.40;47.80
3360;DHT22;1693;49.602;11.046;2023-06-26T14:47:37;34.40;48.70
3360;DHT22;1693;49.602;11.046;2023-06-26T14:50:05;33.60;50.20
3360;DHT22;1693;49.602;11.046;2023-06-26T14:52:34;33.20;51.10
3360;DHT22;1693;49.602;11.046;2023-06-26T14:55:01;32.60;51.70
3360;DHT22;1693;49.602;11.046;2023-06-26T14:57:28;32.30;52.50
3360;DHT22;1693;49.602;11.046;2023-06-26T14:59:56;32.10;52.80
3360;DHT22;1693;49.602;11.046;2023-06-26T15:02:23;31.80;53.10
3360;DHT22;1693;49.602;11.046;2023-06-26T15:04:50;31.60;53.80
3360;DHT22;1693;49.602;11.046;2023-06-26T15:07:17;31.40;54.80
3360;DHT22;1693;49.602;11.046;2023-06-26T15:17:07;30.80;88.80
3360;DHT22;1693;49.602;11.046;2023-06-26T15:19:34;30.70;85.20
3360;DHT22;1693;49.602;11.046;2023-06-26T15:22:01;30.60;86.70
3360;DHT22;1693;49.602;11.046;2023-06-26T15:24:28;30.30;62.20
3360;DHT22;1693;49.602;11.046;2023-06-26T15:26:57;29.10;68.50
3360;DHT22;1693;49.602;11.046;2023-06-26T15:29:24;28.80;73.60
3360;DHT22;1693;49.602;11.046;2023-06-26T15:31:52;28.70;76.70
3360;DHT22;1693;49.602;11.046;2023-06-26T15:34:20;29.00;75.10
3360;DHT22;1693;49.602;11.046;2023-06-26T15:36:48;29.50;74.40
3360;DHT22;1693;49.602;11.046;2023-06-26T15:39:15;30.60;72.70
3360;DHT22;1693;49.602;11.046;2023-06-26T15:41:42;31.50;69.00
3360;DHT22;1693;49.602;11.046;2023-06-26T15:44:12;32.40;68.70
3360;DHT22;1693;49.602;11.046;2023-06-26T15:46:39;33.90;66.50
3360;DHT22;1693;49.602;11.046;2023-06-26T15:49:06;35.00;63.60
3360;DHT22;1693;49.602;11.046;2023-06-26T15:51:33;35.00;61.20
3360;DHT22;1693;49.602;11.046;2023-06-26T15:54:03;35.00;61.10
3360;DHT22;1693;49.602;11.046;2023-06-26T15:56:30;35.20;60.90
3360;DHT22;1693;49.602;11.046;2023-06-26T15:58:57;34.80;60.90
3360;DHT22;1693;49.602;11.046;2023-06-26T16:01:25;34.90;60.90
3360;DHT22;1693;49.602;11.046;2023-06-26T16:03:52;34.80;61.00
3360;DHT22;1693;49.602;11.046;2023-06-26T16:06:19;33.90;61.20
3360;DHT22;1693;49.602;11.046;2023-06-26T16:08:46;33.60;63.00
3360;DHT22;1693;49.602;11.046;2023-06-26T16:11:14;33.50;63.90
3360;DHT22;1693;49.602;11.046;2023-06-26T16:13:41;33.60;64.50
3360;DHT22;1693;49.602;11.046;2023-06-26T16:16:10;34.00;64.40
3360;DHT22;1693;49.602;11.046;2023-06-26T16:18:44;34.10;63.60
3360;DHT22;1693;49.602;11.046;2023-06-26T16:21:13;34.50;62.00
3360;DHT22;1693;49.602;11.046;2023-06-26T16:23:40;35.00;61.80
3360;DHT22;1693;49.602;11.046;2023-06-26T16:26:07;36.30;58.70
3360;DHT22;1693;49.602;11.046;2023-06-26T16:28:34;36.20;57.50
3360;DHT22;1693;49.602;11.046;2023-06-26T16:31:01;35.90;56.90
3360;DHT22;1693;49.602;11.046;2023-06-26T16:33:28;36.10;56.30
3360;DHT22;1693;49.602;11.046;2023-06-26T16:35:56;36.60;55.00
3360;DHT22;1693;49.602;11.046;2023-06-26T16:38:23;36.60;55.30
3360;DHT22;1693;49.602;11.046;2023-06-26T16:40:50;36.50;54.80
3360;DHT22;1693;49.602;11.046;2023-06-26T16:43:17;35.90;53.70
3360;DHT22;1693;49.602;11.046;2023-06-26T16:45:44;34.90;54.80
3360;DHT22;1693;49.602;11.046;2023-06-26T16:48:11;34.20;55.90
3360;DHT22;1693;49.602;11.046;2023-06-26T16:50:39;34.30;55.80
3360;DHT22;1693;49.602;11.046;2023-06-26T16:53:07;33.60;56.10
3360;DHT22;1693;49.602;11.046;2023-06-26T16:55:34;32.80;56.60
3360;DHT22;1693;49.602;11.046;2023-06-26T16:58:01;32.40;57.70
3360;DHT22;1693;49.602;11.046;2023-06-26T17:00:28;32.00;58.50
3360;DHT22;1693;49.602;11.046;2023-06-26T17:02:55;32.10;58.20
3360;DHT22;1693;49.602;11.046;2023-06-26T17:05:22;32.20;58.20
3360;DHT22;1693;49.602;11.046;2023-06-26T17:07:49;31.80;58.70
3360;DHT22;1693;49.602;11.046;2023-06-26T17:10:18;31.50;59.20
3360;DHT22;1693;49.602;11.046;2023-06-26T17:12:45;31.90;59.80
3360;DHT22;1693;49.602;11.046;2023-06-26T17:15:12;32.60;58.90
3360;DHT22;1693;49.602;11.046;2023-06-26T17:17:39;32.80;58.20
3360;DHT22;1693;49.602;11.046;2023-06-26T17:20:08;33.30;57.50
3360;DHT22;1693;49.602;11.046;2023-06-26T17:22:37;33.70;56.70
3360;DHT22;1693;49.602;11.046;2023-06-26T17:25:05;33.30;56.10
3360;DHT22;1693;49.602;11.046;2023-06-26T17:27:35;33.50;55.90
3360;DHT22;1693;49.602;11.046;2023-06-26T17:30:03;33.90;56.10
3360;DHT22;1693;49.602;11.046;2023-06-26T17:32:30;33.60;55.50
3360;DHT22;1693;49.602;11.046;2023-06-26T17:34:57;33.70;56.30
3360;DHT22;1693;49.602;11.046;2023-06-26T17:37:25;33.20;56.60
3360;DHT22;1693;49.602;11.046;2023-06-26T17:39:54;33.00;57.80
3360;DHT22;1693;49.602;11.046;2023-06-26T17:44:50;31.30;59.40
3360;DHT22;1693;49.602;11.046;2023-06-26T17:47:19;30.90;61.10
3360;DHT22;1693;49.602;11.046;2023-06-26T17:49:47;30.70;62.40
3360;DHT22;1693;49.602;11.046;2023-06-26T17:52:14;30.90;62.20
3360;DHT22;1693;49.602;11.046;2023-06-26T17:54:41;30.90;62.40
3360;DHT22;1693;49.602;11.046;2023-06-26T17:57:08;31.00;63.00
3360;DHT22;1693;49.602;11.046;2023-06-26T17:59:35;30.70;62.00
3360;DHT22;1693;49.602;11.046;2023-06-26T18:02:04;30.10;63.20
3360;DHT22;1693;49.602;11.046;2023-06-26T18:11:53;28.80;99.90
3360;DHT22;1693;49.602;11.046;2023-06-26T18:14:20;28.50;97.30
3360;DHT22;1693;49.602;11.046;2023-06-26T18:16:47;28.10;94.40
3360;DHT22;1693;49.602;11.046;2023-06-26T18:19:15;27.60;69.80
3360;DHT22;1693;49.602;11.046;2023-06-26T18:21:42;27.40;71.10
3360;DHT22;1693;49.602;11.046;2023-06-26T18:24:09;27.20;71.70
3360;DHT22;1693;49.602;11.046;2023-06-26T18:31:31;26.40;73.20
3360;DHT22;1693;49.602;11.046;2023-06-26T18:33:57;26.30;74.50
3360;DHT22;1693;49.602;11.046;2023-06-26T18:36:26;26.00;75.70
3360;DHT22;1693;49.602;11.046;2023-06-26T18:38:54;25.90;77.00
3360;DHT22;1693;49.602;11.046;2023-06-26T18:41:21;25.90;78.50
3360;DHT22;1693;49.602;11.046;2023-06-26T18:43:48;25.90;77.50
3360;DHT22;1693;49.602;11.046;2023-06-26T18:46:17;25.80;77.60
3360;DHT22;1693;49.602;11.046;2023-06-26T18:48:46;25.70;78.20
3360;DHT22;1693;49.602;11.046;2023-06-26T18:51:13;25.50;78.20
3360;DHT22;1693;49.602;11.046;2023-06-26T18:53:41;25.40;79.10
3360;DHT22;1693;49.602;11.046;2023-06-26T18:56:09;25.40;80.00
3360;DHT22;1693;49.602;11.046;2023-06-26T18:58:36;25.40;79.10
3360;DHT22;1693;49.602;11.046;2023-06-26T19:01:03;25.20;79.80
3360;DHT22;1693;49.602;11.046;2023-06-26T19:03:30;25.10;80.50
3360;DHT22;1693;49.602;11.046;2023-06-26T19:05:57;24.90;81.00
3360;DHT22;1693;49.602;11.046;2023-06-26T19:08:24;24.80;82.70
3360;DHT22;1693;49.602;11.046;2023-06-26T19:13:20;24.50;80.40
3360;DHT22;1693;49.602;11.046;2023-06-26T19:15:47;24.40;81.10
3360;DHT22;1693;49.602;11.046;2023-06-26T19:18:14;24.40;78.80
3360;DHT22;1693;49.602;11.046;2023-06-26T19:20:42;24.50;78.40
3360;DHT22;1693;49.602;11.046;2023-06-26T19:23:10;24.40;78.20
3360;DHT22;1693;49.602;11.046;2023-06-26T19:25:37;24.40;77.20
3360;DHT22;1693;49.602;11.046;2023-06-26T19:28:05;24.30;76.40
3360;DHT22;1693;49.602;11.046;2023-06-26T19:30:34;24.20;77.60
3360;DHT22;1693;49.602;11.046;2023-06-26T19:33:01;24.10;76.70
3360;DHT22;1693;49.602;11.046;2023-06-26T19:35:29;24.00;76.10
3360;DHT22;1693;49.602;11.046;2023-06-26T19:37:56;24.10;75.10
3360;DHT22;1693;49.602;11.046;2023-06-26T19:40:24;23.90;75.10
3360;DHT22;1693;49.602;11.046;2023-06-26T19:42:52;23.80;75.30
3360;DHT22;1693;49.602;11.046;2023-06-26T19:45:48;23.80;75.10
3360;DHT22;1693;49.602;11.046;2023-06-26T19:48:32;23.80;74.60
3360;DHT22;1693;49.602;11.046;2023-06-26T19:51:15;23.60;73.10
3360;DHT22;1693;49.602;11.046;2023-06-26T19:53:42;23.60;73.10
3360;DHT22;1693;49.602;11.046;2023-06-26T19:56:09;23.50;72.80
3360;DHT22;1693;49.602;11.046;2023-06-26T19:58:36;23.50;72.90
3360;DHT22;1693;49.602;11.046;2023-06-26T20:01:04;23.40;72.30
3360;DHT22;1693;49.602;11.046;2023-06-26T20:03:31;23.40;72.00
3360;DHT22;1693;49.602;11.046;2023-06-26T20:05:59;23.30;71.90
3360;DHT22;1693;49.602;11.046;2023-06-26T20:08:27;23.30;72.10
3360;DHT22;1693;49.602;11.046;2023-06-26T20:10:55;23.20;72.20
3360;DHT22;1693;49.602;11.046;2023-06-26T20:13:22;23.20;71.90
3360;DHT22;1693;49.602;11.046;2023-06-26T23:15:32;20.40;80.10
3360;DHT22;1693;49.602;11.046;2023-06-26T23:18:04;20.30;80.30
3360;DHT22;1693;49.602;11.046;2023-06-26T23:20:32;20.20;80.70
3360;DHT22;1693;49.602;11.046;2023-06-26T23:22:59;20.10;79.10
3360;DHT22;1693;49.602;11.046;2023-06-26T23:25:26;20.10;78.00
3360;DHT22;1693;49.602;11.046;2023-06-26T23:28:00;20.10;78.40
3360;DHT22;1693;49.602;11.046;2023-06-26T23:30:28;20.10;77.10
3360;DHT22;1693;49.602;11.046;2023-06-26T23:32:55;20.10;77.20
3360;DHT22;1693;49.602;11.046;2023-06-26T23:35:22;20.00;76.90
3360;DHT22;1693;49.602;11.046;2023-06-26T23:37:50;20.10;76.20
3360;DHT22;1693;49.602;11.046;2023-06-26T23:40:21;20.00;76.20
3360;DHT22;1693;49.602;11.046;2023-06-26T23:42:48;20.00;75.70
3360;DHT22;1693;49.602;11.046;2023-06-26T23:45:16;20.00;76.70
3360;DHT22;1693;49.602;11.046;2023-06-26T23:47:46;20.00;77.10
3360;DHT22;1693;49.602;11.046;2023-06-26T23:50:14;19.80;75.90
3360;DHT22;1693;49.602;11.046;2023-06-26T23:52:41;19.90;76.00
3360;DHT22;1693;49.602;11.046;2023-06-26T23:55:10;19.90;76.40
3360;DHT22;1693;49.602;11.046;2023-06-26T23:57:41;19.80;75.80
